VIDPVAID

Guest
Details From VIDP - Indira Gandhi Intl
To VAID - Devi Ahilyabai Holkar
Flight Number -
Tags Generated
Created
Modified
Stats Distance 359 nm / 665 km
Max Altitude 0 ft / 0 m
Waypoints 3
Social Downloads 0
Likes 0
Share VATSIM

Download

Looking for another format? Having issues loading an existing format? Contact us
Advertisement - Login to hide

Notes

Generated

Route

VIDP ID VAID

ID Type Via Altitude Latitude Longitude Leg Dist Tot Dist Heading (true) Name
O VIDP APT - 0 ft / 0 m 28.57049˚ 77.08804˚ - 0 nm - -
ID NDB - 0 ft / 0 m 22.72974˚ 75.81008˚ 357 nm 357 nm 191° / 191° INDORE NDB
O VAID APT - 0 ft / 0 m 22.71745˚ 75.79103˚ 1 nm 358 nm 235° / 235° -

Altitude Profile

Advertisement - Login to hide

Weather


0- 5 10 15 20 25 30 35+ Temperature / ° C

Clouds and Precipitation
Forecast for 2017-12-13 18:00 UTC. Updated 6 minutes ago

Ground ~20,000 ft ~40,000 ft Winds

VIDP

Details ICAO VIDP (DEL)
Name INDIRA GANDHI INTL
Region India
Timezone Asia/Kolkata (UTC+5.5)
Stats Elevation 777 ft / 237 m (AMSL)
Location 28.566496° 77.103090°
Runways 2
Magnetic Variation 1.217° E

METAR

VIDP 131300Z 26005KT 1200 R28/P2000 R29/1700 BR NSC 15/13 Q1018 NOSIG

Decode

TAF

TAF VIDP 130500Z 1306/1412 26005KT 0800 MUFG NSC BECMG 1308/1310 29005KT 1000 BR BECMG 1321/1323 00000KT 0100 FG VV/// BECMG 1405/1407 0800 MIFG NSC BECMG 1408/1410 29006KT 1200 FU NSC

Decode

Departure Runways

ID Width Length Bearing (true) Bearing (mag) Surface Threshold Offset Overrun Length
09 150 ft / 46 m 9,270 ft / 2,826 m 91.50° 90.28° Asphalt 0 ft / 0 m 195 ft / 59 m
10 150 ft / 46 m 12,488 ft / 3,807 m 104.67° 103.45° Asphalt 0 ft / 0 m 880 ft / 268 m
27 150 ft / 46 m 9,270 ft / 2,826 m 271.52° 270.30° Asphalt 499 ft / 152 m 0 ft / 0 m
28 150 ft / 46 m 12,488 ft / 3,807 m 284.69° 283.47° Asphalt 0 ft / 0 m 470 ft / 143 m

VAID

Details ICAO VAID (IDR)
Name DEVI AHILYABAI HOLKAR
Region India
Timezone Asia/Kolkata (UTC+5.5)
Stats Elevation 1,850 ft / 564 m (AMSL)
Location 22.721785° 75.801086°
Runways 1
Magnetic Variation 0.282° E

METAR

VAID 131200Z 02004KT 3000 HZ FEW025 23/17 Q1015 NOSIG

Decode

TAF

Not found

Destination Runways

ID Width Length Bearing (true) Bearing (mag) Surface Threshold Offset Overrun Length
07 148 ft / 45 m 7,471 ft / 2,277 m 64.96° 64.68° Dirt 0 ft / 0 m 180 ft / 55 m
25 148 ft / 45 m 7,471 ft / 2,277 m 244.97° 244.69° Dirt 0 ft / 0 m 213 ft / 65 m

Approach Navaids

Runway Type Ident Frequency Range Bearing (true) Bearing (mag) Slope Elevation
25 Localiser IIDR 110.90 MHz 18 nm / 33 km 244.27° 243.98° - 1,850 ft / 564 m (AMSL)
25 Glidescope IIDR 110.90 MHz 10 nm / 19 km 244.97° 244.68° 3.00° 1,850 ft / 564 m (AMSL)
25 DME IIDR 110.90 MHz 18 nm / 33 km - - - 1,850 ft / 564 m (AMSL)

Popular Alternatives